Seaview, Washington
Current Conditions -  °F | °C
As of 4:02 PM on Saturday 25 Oct 2014 (Local Time) from KAST Reporting Station
Light Rain Light Rain  
Wind Chill: 59°   Ceiling: 2500
Heat Index: 59°   Visibility: 5mi
Dew Point: 54°   Wind: 18mph
Humidity: 83%   Direction: 190°S
Pressure: 29.28"   Gusts: 37mph
Location:  46.33°N, 124.05°W
Report Text: KAST 252302Z AUTO 19016G32KT 5SM -RA FEW013 BKN025 OVC038 15/12 A2928 RMK AO2 PK WND 19030/2256 RAB2258 P0000 T01500122
Loading
Personal Weather Stations






























Interactive Weather Map
Tropical Storm Tracking
New forecast layout! Learn more

10-Day Weather Forecast

Advertisements
Track Severe Weather on mobile